Time;durP1;ratioP1;P1;durP2;ratioP2;P2;SDS_P1;SDS_P2;PMS_P1;PMS_P2;Temp;Humidity;BMP_temperature;BMP_pressure;BME280_temperature;BME280_humidity;BME280_pressure;Samples;Min_cycle;Max_cycle;Signal;HPM_P1;HPM_P2
2022/10/07 00:01:01;;;;;;;7.70;5.47;;;12.70;85.30;;;;;;5083338;28;20203;-63
2022/10/07 00:03:28;;;;;;;7.07;5.80;;;12.70;85.00;;;;;;5115314;28;20202;-61
2022/10/07 00:06:09;;;;;;;9.80;5.33;;;12.60;85.20;;;;;;5115891;28;20192;-62
2022/10/07 00:08:36;;;;;;;6.73;4.73;;;12.60;85.40;;;;;;5104526;28;20281;-61
2022/10/07 00:11:11;;;;;;;6.43;4.90;;;12.60;85.30;;;;;;5115459;28;20192;-62
2022/10/07 00:13:39;;;;;;;8.30;5.07;;;12.60;85.10;;;;;;5116039;28;20276;-62
2022/10/07 00:16:07;;;;;;;7.03;5.27;;;12.60;85.30;;;;;;5097723;28;20191;-62
2022/10/07 00:18:34;;;;;;;6.10;5.20;;;12.60;85.00;;;;;;5097841;28;20180;-62
2022/10/07 00:21:08;;;;;;;6.90;5.27;;;12.50;84.90;;;;;;5098034;28;20275;-61
2022/10/07 00:23:34;;;;;;;7.37;5.50;;;12.50;85.20;;;;;;5098035;28;20197;-62
2022/10/07 00:26:02;;;;;;;5.07;4.57;;;12.60;85.10;;;;;;5114503;28;20230;-62
2022/10/07 00:28:28;;;;;;;6.63;5.03;;;12.50;84.90;;;;;;5114096;28;20265;-62
2022/10/07 00:30:58;;;;;;;7.77;4.90;;;12.50;85.00;;;;;;5097231;28;20189;-62
2022/10/07 00:33:24;;;;;;;7.50;5.30;;;12.50;84.90;;;;;;5096418;28;20192;-61
2022/10/07 00:35:49;;;;;;;7.63;5.73;;;12.50;84.80;;;;;;5114532;28;20234;-61
2022/10/07 00:38:15;;;;;;;8.53;5.37;;;12.50;85.00;;;;;;5114905;28;20189;-61
2022/10/07 00:40:40;;;;;;;8.17;5.20;;;12.40;84.90;;;;;;5114596;28;20200;-63
2022/10/07 00:43:20;;;;;;;7.97;4.83;;;12.50;84.90;;;;;;5093803;28;20197;-62
2022/10/07 00:45:47;;;;;;;5.97;5.10;;;12.40;84.90;;;;;;5108509;28;20184;-61
2022/10/07 00:48:15;;;;;;;6.07;5.50;;;12.40;84.90;;;;;;5093947;28;20202;-62
2022/10/07 00:50:41;;;;;;;5.73;5.00;;;12.30;84.90;;;;;;5072332;28;20193;-63
2022/10/07 00:53:08;;;;;;;8.23;5.47;;;12.30;85.00;;;;;;5115812;27;20199;-62
2022/10/07 00:55:34;;;;;;;7.67;4.80;;;12.30;84.90;;;;;;5113609;28;20215;-61
2022/10/07 00:58:05;;;;;;;7.60;5.33;;;12.30;85.10;;;;;;5080127;28;20216;-62
2022/10/07 01:00:31;;;;;;;7.20;5.40;;;12.30;85.20;;;;;;5105919;28;20184;-62
2022/10/07 01:02:57;;;;;;;9.03;5.07;;;12.30;85.10;;;;;;5108459;28;20188;-62
2022/10/07 01:05:23;;;;;;;5.60;5.03;;;12.30;85.00;;;;;;5095536;28;20188;-61
2022/10/07 01:07:49;;;;;;;11.10;5.43;;;12.30;84.90;;;;;;5096757;28;20205;-62
2022/10/07 01:10:18;;;;;;;6.13;4.80;;;12.20;85.00;;;;;;5093720;28;20186;-63
2022/10/07 01:12:56;;;;;;;5.77;5.13;;;12.20;85.30;;;;;;5112718;28;20213;-61
2022/10/07 01:15:39;;;;;;;6.03;5.17;;;12.20;85.10;;;;;;5100441;28;20189;-61
2022/10/07 01:18:14;;;;;;;5.50;5.00;;;12.20;85.20;;;;;;5112227;28;20208;-63
2022/10/07 01:20:46;;;;;;;7.07;5.17;;;12.20;85.30;;;;;;5109998;28;20195;-61
2022/10/07 01:23:20;;;;;;;5.83;4.83;;;12.20;85.30;;;;;;5102267;28;20214;-62
2022/10/07 01:25:48;;;;;;;5.33;4.83;;;12.20;85.20;;;;;;5112861;28;20188;-63
2022/10/07 01:28:21;;;;;;;6.53;5.77;;;12.10;85.10;;;;;;5114693;28;20231;-62
2022/10/07 01:30:52;;;;;;;7.87;4.93;;;12.10;85.20;;;;;;5115045;28;20192;-61
2022/10/07 01:33:22;;;;;;;7.67;5.87;;;12.10;85.00;;;;;;5097625;28;20185;-62
2022/10/07 01:35:50;;;;;;;6.93;5.20;;;12.00;85.00;;;;;;5111316;28;20224;-61
2022/10/07 01:38:18;;;;;;;5.17;4.70;;;12.00;85.10;;;;;;5093278;28;20242;-62
2022/10/07 01:41:05;;;;;;;7.97;4.50;;;12.00;85.10;;;;;;5084425;28;20189;-61
2022/10/07 01:43:32;;;;;;;7.40;5.10;;;12.00;85.40;;;;;;5114662;28;20184;-62
2022/10/07 01:45:58;;;;;;;6.17;5.10;;;12.00;85.20;;;;;;5092795;28;20197;-61
2022/10/07 01:48:24;;;;;;;9.53;5.63;;;11.90;85.40;;;;;;5102221;28;20219;-62
2022/10/07 01:50:50;;;;;;;5.80;5.17;;;12.00;85.40;;;;;;5089055;28;20199;-61
2022/10/07 01:53:30;;;;;;;6.73;5.63;;;11.90;85.30;;;;;;5076504;28;20200;-63
2022/10/07 01:56:15;;;;;;;8.70;5.77;;;11.90;85.50;;;;;;5107255;28;20266;-62
2022/10/07 01:58:48;;;;;;;5.40;4.90;;;11.90;85.50;;;;;;5101418;28;20195;-61
2022/10/07 02:01:42;;;;;;;7.67;5.07;;;11.90;85.30;;;;;;5108895;28;20184;-62
2022/10/07 02:04:33;;;;;;;8.00;4.50;;;11.80;85.00;;;;;;5112128;28;20188;-61
2022/10/07 02:06:58;;;;;;;6.57;4.90;;;11.80;85.10;;;;;;5099332;28;20225;-61
2022/10/07 02:09:41;;;;;;;6.00;5.17;;;11.80;85.00;;;;;;5114434;28;20215;-61
2022/10/07 02:12:28;;;;;;;5.30;4.53;;;11.80;85.00;;;;;;5113701;28;20188;-62
2022/10/07 02:15:10;;;;;;;8.87;5.03;;;11.80;85.00;;;;;;5099511;28;20194;-61
2022/10/07 02:17:44;;;;;;;6.43;4.87;;;11.80;85.30;;;;;;5106074;28;20188;-61
2022/10/07 02:20:13;;;;;;;7.93;4.60;;;11.80;85.30;;;;;;5110918;28;20271;-62
2022/10/07 02:22:42;;;;;;;5.60;4.60;;;11.80;85.30;;;;;;5109854;28;20192;-62
2022/10/07 02:25:10;;;;;;;6.30;5.07;;;11.80;85.50;;;;;;5112634;28;20203;-61
2022/10/07 02:27:38;;;;;;;6.63;4.50;;;11.80;85.50;;;;;;5092470;28;20221;-61
2022/10/07 02:30:15;;;;;;;7.27;4.80;;;11.80;85.60;;;;;;5109316;28;20192;-61
2022/10/07 02:32:46;;;;;;;6.83;5.27;;;11.80;85.40;;;;;;5100950;28;20197;-62
2022/10/07 02:35:54;;;;;;;5.73;5.13;;;11.80;85.40;;;;;;5098261;28;20204;-57
2022/10/07 02:38:21;;;;;;;5.73;4.30;;;11.80;85.40;;;;;;5112582;28;20273;-63
2022/10/07 02:41:11;;;;;;;5.67;4.80;;;11.70;85.60;;;;;;5077856;28;20247;-62
2022/10/07 02:43:47;;;;;;;5.87;5.13;;;11.70;85.40;;;;;;5112292;28;20216;-61
2022/10/07 02:46:22;;;;;;;5.93;5.33;;;11.60;85.30;;;;;;5111788;28;20204;-62
2022/10/07 02:48:57;;;;;;;5.83;4.80;;;11.60;85.40;;;;;;5097506;28;20338;-62
2022/10/07 02:51:27;;;;;;;6.33;5.30;;;11.60;85.40;;;;;;5106782;28;20185;-62
2022/10/07 02:53:55;;;;;;;11.17;5.57;;;11.60;85.40;;;;;;5105665;28;20233;-63
2022/10/07 02:56:24;;;;;;;4.93;4.43;;;11.60;85.40;;;;;;5113554;28;20180;-61
2022/10/07 02:58:51;;;;;;;5.60;4.70;;;11.60;85.40;;;;;;5114430;28;20185;-61
2022/10/07 03:01:21;;;;;;;5.80;4.87;;;11.60;85.50;;;;;;5096613;28;20192;-62
2022/10/07 03:03:47;;;;;;;10.13;5.07;;;11.60;85.60;;;;;;5129945;27;20196;-61
2022/10/07 03:06:16;;;;;;;5.77;5.17;;;11.60;85.30;;;;;;5098236;28;20201;-62
2022/10/07 03:08:42;;;;;;;8.67;4.70;;;11.60;85.30;;;;;;5108467;28;20205;-61
2022/10/07 03:11:08;;;;;;;6.87;5.50;;;11.50;85.30;;;;;;5115532;28;20190;-62
2022/10/07 03:13:34;;;;;;;6.43;5.37;;;11.50;85.50;;;;;;5096138;28;20181;-62
2022/10/07 03:16:02;;;;;;;8.70;5.80;;;11.50;85.70;;;;;;5093956;28;20189;-63
2022/10/07 03:18:28;;;;;;;8.80;6.20;;;11.50;85.40;;;;;;5096075;28;20189;-62
2022/10/07 03:20:59;;;;;;;6.17;5.57;;;11.40;85.20;;;;;;5097629;28;20195;-61
2022/10/07 03:23:25;;;;;;;6.30;5.70;;;11.40;85.40;;;;;;5115169;28;20192;-61
2022/10/07 03:25:53;;;;;;;6.10;5.50;;;11.40;85.40;;;;;;5095385;28;20189;-61
2022/10/07 03:28:23;;;;;;;7.33;5.80;;;11.30;85.30;;;;;;5095124;28;20216;-62
2022/10/07 03:30:50;;;;;;;5.67;5.00;;;11.30;85.40;;;;;;5108377;28;20185;-62
2022/10/07 03:33:17;;;;;;;5.23;4.70;;;11.30;85.50;;;;;;5096184;28;20189;-62
2022/10/07 03:35:42;;;;;;;8.83;5.47;;;11.30;85.80;;;;;;5107311;28;20221;-62
2022/10/07 03:38:09;;;;;;;6.70;4.27;;;11.30;85.70;;;;;;5113002;28;20199;-62
2022/10/07 03:40:35;;;;;;;10.83;5.57;;;11.40;86.00;;;;;;5113504;28;20192;-62
2022/10/07 03:43:01;;;;;;;8.87;5.17;;;11.40;86.10;;;;;;5098441;28;20223;-62
2022/10/07 03:45:31;;;;;;;9.10;5.20;;;11.50;86.20;;;;;;5115540;28;20216;-62
2022/10/07 03:47:57;;;;;;;8.53;5.00;;;11.50;86.30;;;;;;5111305;28;20209;-62
2022/10/07 03:50:24;;;;;;;6.43;5.37;;;11.60;86.20;;;;;;5116129;28;20212;-62
2022/10/07 03:52:50;;;;;;;5.97;5.37;;;11.60;86.10;;;;;;5096227;28;20186;-62
2022/10/07 03:55:15;;;;;;;5.30;4.70;;;11.60;86.00;;;;;;5081037;28;20191;-62
2022/10/07 03:57:52;;;;;;;9.73;5.20;;;11.60;86.10;;;;;;5095515;28;20220;-62
2022/10/07 04:00:23;;;;;;;6.60;4.83;;;11.60;86.10;;;;;;5101644;28;20209;-62
2022/10/07 04:02:50;;;;;;;8.93;4.87;;;11.60;86.10;;;;;;5101475;28;20185;-61
2022/10/07 04:05:17;;;;;;;7.37;5.37;;;11.60;85.90;;;;;;5094983;28;20193;-62
2022/10/07 04:07:44;;;;;;;6.10;4.30;;;11.60;85.80;;;;;;5110934;28;21204;-62
2022/10/07 04:10:12;;;;;;;5.60;5.10;;;11.60;85.80;;;;;;5107434;28;20184;-61
2022/10/07 04:12:38;;;;;;;6.93;5.33;;;11.60;85.90;;;;;;5112070;28;20184;-61
2022/10/07 04:15:04;;;;;;;5.60;4.93;;;11.60;85.90;;;;;;5093863;28;20194;-61
2022/10/07 04:17:30;;;;;;;7.87;5.27;;;11.70;85.90;;;;;;5083189;28;20294;-61
2022/10/07 04:19:56;;;;;;;8.70;5.17;;;11.70;86.00;;;;;;5080683;28;20202;-61
2022/10/07 04:22:23;;;;;;;7.73;5.87;;;11.60;86.10;;;;;;5097692;28;20225;-62
2022/10/07 04:25:32;;;;;;;10.27;5.37;;;11.60;86.00;;;;;;5097859;28;20263;-61
2022/10/07 04:27:35;;;;;;;6.87;5.47;;;11.60;86.00;;;;;;5107171;28;20688;-61
2022/10/07 04:30:02;;;;;;;6.90;4.77;;;11.60;85.80;;;;;;5108361;28;20739;-61
2022/10/07 04:32:29;;;;;;;8.60;5.33;;;11.60;85.80;;;;;;5106272;28;20196;-61
2022/10/07 04:34:55;;;;;;;6.37;5.77;;;11.50;85.80;;;;;;5094281;28;20214;-62
2022/10/07 04:37:20;;;;;;;7.17;4.83;;;11.60;85.90;;;;;;5096009;28;20310;-62
2022/10/07 04:39:46;;;;;;;8.67;4.93;;;11.50;85.80;;;;;;5102678;28;20288;-61
2022/10/07 04:43:17;;;;;;;5.40;4.90;;;11.50;85.80;;;;;;5096211;28;20190;-62
2022/10/07 04:44:57;;;;;;;7.83;5.03;;;11.40;86.10;;;;;;5089772;28;20180;-61
2022/10/07 04:47:23;;;;;;;9.77;4.93;;;11.50;86.00;;;;;;5079216;28;20230;-61
2022/10/07 04:49:48;;;;;;;6.83;4.80;;;11.40;85.80;;;;;;5078224;28;20196;-61
2022/10/07 04:52:14;;;;;;;8.43;4.80;;;11.40;85.80;;;;;;5076278;28;20185;-62
2022/10/07 04:54:40;;;;;;;8.77;5.10;;;11.40;85.80;;;;;;5093626;28;20677;-61
2022/10/07 04:57:05;;;;;;;12.80;5.63;;;11.40;85.80;;;;;;5113347;28;20189;-61
2022/10/07 04:59:31;;;;;;;7.63;5.33;;;11.40;86.00;;;;;;5097030;28;20275;-61
2022/10/07 05:01:57;;;;;;;6.50;4.93;;;11.40;85.90;;;;;;5111787;28;20192;-61
2022/10/07 05:04:22;;;;;;;10.90;4.60;;;11.40;86.10;;;;;;5091242;28;20200;-61
2022/10/07 05:06:48;;;;;;;6.53;5.30;;;11.50;86.30;;;;;;5096423;28;20220;-62
2022/10/07 05:09:14;;;;;;;6.23;5.20;;;11.50;86.30;;;;;;5113312;28;20212;-62
2022/10/07 05:11:39;;;;;;;7.07;5.70;;;11.60;86.70;;;;;;5087461;28;20193;-61
2022/10/07 05:14:05;;;;;;;9.93;5.23;;;11.70;86.80;;;;;;5103862;28;20180;-61
2022/10/07 05:16:31;;;;;;;7.93;5.53;;;11.80;87.00;;;;;;5081153;28;20193;-61
2022/10/07 05:18:56;;;;;;;5.63;5.07;;;11.80;87.00;;;;;;5107351;28;20218;-62
2022/10/07 05:21:22;;;;;;;7.77;5.10;;;11.80;87.10;;;;;;5095410;28;20200;-61
2022/10/07 05:23:48;;;;;;;7.87;5.57;;;11.80;87.20;;;;;;5094149;28;20193;-62
2022/10/07 05:26:14;;;;;;;8.00;5.73;;;12.00;87.40;;;;;;5079448;28;20192;-62
2022/10/07 05:28:42;;;;;;;10.40;5.50;;;12.00;87.50;;;;;;5098568;28;20292;-62
2022/10/07 05:31:13;;;;;;;9.73;6.10;;;12.00;87.70;;;;;;5098112;28;20189;-62
2022/10/07 05:33:39;;;;;;;6.60;5.90;;;12.00;87.70;;;;;;5093285;28;20216;-62
2022/10/07 05:36:07;;;;;;;8.90;5.50;;;12.20;87.60;;;;;;5093923;28;20565;-62
2022/10/07 05:38:33;;;;;;;9.87;6.07;;;12.20;87.80;;;;;;5098047;28;20223;-62
2022/10/07 05:41:02;;;;;;;7.83;5.77;;;12.20;87.80;;;;;;5093591;28;20204;-62
2022/10/07 05:43:30;;;;;;;9.07;6.17;;;12.30;87.70;;;;;;5102310;28;20670;-62
2022/10/07 05:46:14;;;;;;;6.30;5.00;;;12.30;87.90;;;;;;5111293;28;20280;-62
2022/10/07 05:48:40;;;;;;;7.13;4.83;;;12.30;87.80;;;;;;5099555;28;20240;-62
2022/10/07 05:51:07;;;;;;;6.13;5.53;;;12.40;87.70;;;;;;5107730;28;20185;-62
2022/10/07 05:53:33;;;;;;;7.33;5.90;;;12.50;87.70;;;;;;5109331;28;20192;-62
2022/10/07 05:56:07;;;;;;;9.33;6.27;;;12.50;87.80;;;;;;5094571;28;20265;-62
2022/10/07 05:58:36;;;;;;;9.07;5.60;;;12.50;87.70;;;;;;5111258;28;20188;-62
2022/10/07 06:01:05;;;;;;;7.63;5.93;;;12.60;87.80;;;;;;5089075;28;20197;-62
2022/10/07 06:03:32;;;;;;;6.47;5.80;;;12.70;87.80;;;;;;5109665;28;20184;-62
2022/10/07 06:05:59;;;;;;;5.77;5.10;;;12.70;87.70;;;;;;5092519;28;20204;-61
2022/10/07 06:08:26;;;;;;;8.60;5.77;;;12.80;87.70;;;;;;5111764;28;20192;-61
2022/10/07 06:13:36;;;;;;;6.97;5.60;;;12.80;87.40;;;;;;5113878;28;20195;-62
2022/10/07 06:16:04;;;;;;;7.23;5.70;;;12.90;87.30;;;;;;5105405;28;20189;-61
2022/10/07 06:18:30;;;;;;;7.47;5.97;;;12.90;87.40;;;;;;5093235;28;20209;-61
2022/10/07 06:20:58;;;;;;;10.57;5.93;;;12.90;87.40;;;;;;5101374;28;20198;-61
2022/10/07 06:23:25;;;;;;;9.53;5.33;;;12.90;87.30;;;;;;5095325;28;20193;-62
2022/10/07 06:25:59;;;;;;;8.70;6.40;;;12.90;87.30;;;;;;5112719;28;20208;-61
2022/10/07 06:28:25;;;;;;;8.23;5.87;;;12.90;87.30;;;;;;5108810;28;20287;-61
2022/10/07 06:30:51;;;;;;;9.33;5.77;;;12.80;87.20;;;;;;5098770;28;20185;-61
2022/10/07 06:33:18;;;;;;;7.10;6.00;;;12.90;87.20;;;;;;5086119;28;20196;-61
2022/10/07 06:35:45;;;;;;;8.33;6.03;;;12.90;87.10;;;;;;5080128;28;20261;-61
2022/10/07 06:38:11;;;;;;;8.40;5.27;;;12.90;87.10;;;;;;5096549;28;20192;-62
2022/10/07 06:40:37;;;;;;;7.13;5.47;;;12.90;87.00;;;;;;5097978;28;20195;-61
2022/10/07 06:43:03;;;;;;;9.77;5.27;;;12.90;87.00;;;;;;5096502;28;20275;-61
2022/10/07 06:45:31;;;;;;;9.73;5.67;;;12.90;86.90;;;;;;5095964;28;20286;-60
2022/10/07 06:47:57;;;;;;;9.10;5.80;;;12.90;87.00;;;;;;5109669;28;20216;-62
2022/10/07 06:50:23;;;;;;;8.73;6.07;;;12.80;87.00;;;;;;5110072;28;20180;-61
2022/10/07 06:52:48;;;;;;;6.33;5.13;;;12.80;87.00;;;;;;5090141;28;20180;-61
2022/10/07 06:55:14;;;;;;;7.57;5.30;;;12.80;86.90;;;;;;5093661;28;20208;-61
2022/10/07 06:57:41;;;;;;;9.13;5.17;;;12.80;87.00;;;;;;5101354;28;20192;-61
2022/10/07 07:00:08;;;;;;;9.60;5.80;;;12.90;87.00;;;;;;5090130;28;20193;-61
2022/10/07 07:02:34;;;;;;;6.90;5.63;;;12.90;87.00;;;;;;5123315;27;20274;-61
2022/10/07 07:05:03;;;;;;;7.73;5.77;;;12.90;87.00;;;;;;5110940;28;20257;-62
2022/10/07 07:07:29;;;;;;;10.80;5.43;;;12.90;87.00;;;;;;5092739;28;20210;-62
2022/10/07 07:09:55;;;;;;;7.50;5.77;;;12.90;87.00;;;;;;5108317;28;20184;-61
2022/10/07 07:12:24;;;;;;;8.37;6.23;;;12.90;86.90;;;;;;5095014;28;20189;-61
2022/10/07 07:14:50;;;;;;;6.30;5.70;;;12.90;87.10;;;;;;5109297;28;20268;-61
2022/10/07 07:17:16;;;;;;;7.70;6.40;;;12.90;87.20;;;;;;5093492;28;20188;-61
2022/10/07 07:19:42;;;;;;;9.60;5.93;;;13.00;87.30;;;;;;5092649;28;20283;-61
2022/10/07 07:22:08;;;;;;;8.10;5.57;;;13.00;87.20;;;;;;5088542;28;20272;-62
2022/10/07 07:24:34;;;;;;;10.37;6.10;;;13.00;87.30;;;;;;5101084;28;20197;-62
2022/10/07 07:26:59;;;;;;;9.20;6.23;;;13.10;87.20;;;;;;5098491;28;20213;-61
2022/10/07 07:29:25;;;;;;;7.77;5.60;;;13.10;87.20;;;;;;5084996;28;20242;-61
2022/10/07 07:31:51;;;;;;;6.70;5.93;;;13.20;87.30;;;;;;5095290;28;20257;-62
2022/10/07 07:34:17;;;;;;;8.30;5.90;;;13.20;87.30;;;;;;5096393;28;20216;-62
2022/10/07 07:36:49;;;;;;;9.57;6.10;;;13.20;87.30;;;;;;5089748;28;20248;-62
2022/10/07 07:39:17;;;;;;;9.47;5.13;;;13.20;87.30;;;;;;5114300;28;20173;-62
2022/10/07 07:41:49;;;;;;;7.43;6.50;;;13.30;87.20;;;;;;5100005;28;20218;-62
2022/10/07 07:44:17;;;;;;;7.43;6.40;;;13.30;87.10;;;;;;5107005;28;20260;-62
2022/10/07 07:46:50;;;;;;;9.73;6.37;;;13.30;87.20;;;;;;5088468;28;20238;-61
2022/10/07 07:49:16;;;;;;;5.93;5.27;;;13.30;87.20;;;;;;5111780;28;20343;-61
2022/10/07 07:51:42;;;;;;;8.20;6.17;;;13.40;87.10;;;;;;5094297;28;20648;-62
2022/10/07 07:54:09;;;;;;;8.67;6.37;;;13.40;87.00;;;;;;5109701;28;20214;-62
2022/10/07 07:56:35;;;;;;;8.47;6.13;;;13.50;87.10;;;;;;5105118;28;20193;-62
2022/10/07 07:59:02;;;;;;;11.63;6.57;;;13.50;86.90;;;;;;5103767;28;20193;-62
2022/10/07 08:01:31;;;;;;;8.93;6.27;;;13.60;87.10;;;;;;5097406;28;20195;-61
2022/10/07 08:03:57;;;;;;;11.33;6.43;;;13.60;87.30;;;;;;5108956;28;20181;-61
2022/10/07 08:06:26;;;;;;;8.50;6.17;;;13.60;87.20;;;;;;5091507;28;20188;-62
2022/10/07 08:08:56;;;;;;;9.47;6.10;;;13.70;87.10;;;;;;5078474;28;20205;-62
2022/10/07 08:11:22;;;;;;;7.03;5.30;;;13.70;87.10;;;;;;5111855;28;20716;-61
2022/10/07 08:13:48;;;;;;;8.60;5.70;;;13.70;87.10;;;;;;5094730;28;20184;-62
2022/10/07 08:16:19;;;;;;;7.87;6.17;;;13.80;87.00;;;;;;5108083;28;20196;-61
2022/10/07 08:18:47;;;;;;;9.40;5.23;;;13.80;86.90;;;;;;5094590;28;20180;-62
2022/10/07 08:21:17;;;;;;;10.07;5.47;;;13.80;86.90;;;;;;5112269;28;20177;-61
2022/10/07 08:23:42;;;;;;;7.60;5.50;;;13.90;87.30;;;;;;5107379;28;20234;-62
2022/10/07 08:26:08;;;;;;;7.83;5.90;;;13.90;87.20;;;;;;5091909;28;20192;-61
2022/10/07 08:28:35;;;;;;;8.90;5.00;;;13.90;87.20;;;;;;5103072;27;20297;-61
2022/10/07 08:31:06;;;;;;;8.73;5.77;;;14.00;87.10;;;;;;5101589;28;20185;-62
2022/10/07 08:33:34;;;;;;;8.03;5.93;;;14.00;87.10;;;;;;5124080;27;20195;-62
2022/10/07 08:36:03;;;;;;;9.83;5.83;;;14.10;86.90;;;;;;5105203;28;20233;-61
2022/10/07 08:38:34;;;;;;;6.83;5.87;;;14.30;86.60;;;;;;5111892;28;20199;-61
2022/10/07 08:41:31;;;;;;;9.67;6.87;;;14.30;86.60;;;;;;5112285;28;20268;-61
2022/10/07 08:43:58;;;;;;;7.80;5.80;;;14.30;86.00;;;;;;5108566;28;20173;-61
2022/10/07 08:46:31;;;;;;;9.57;6.50;;;14.50;86.10;;;;;;5100360;28;20192;-61
2022/10/07 08:49:14;;;;;;;5.43;4.70;;;14.70;85.10;;;;;;5107487;28;20210;-62
2022/10/07 08:51:49;;;;;;;7.57;6.33;;;14.80;85.30;;;;;;5116598;27;20230;-61
2022/10/07 08:54:18;;;;;;;8.27;5.70;;;14.80;84.70;;;;;;5108553;28;20316;-61
2022/10/07 08:56:45;;;;;;;6.90;5.50;;;15.00;84.10;;;;;;5090198;28;20188;-62
2022/10/07 08:59:31;;;;;;;7.50;5.90;;;15.00;84.40;;;;;;5096682;28;20199;-61
2022/10/07 09:02:12;;;;;;;11.97;6.37;;;15.00;84.50;;;;;;5099265;28;20176;-61
2022/10/07 09:04:59;;;;;;;8.97;6.30;;;15.10;84.40;;;;;;5112461;28;20246;-61
2022/10/07 09:07:46;;;;;;;7.43;5.93;;;15.30;83.40;;;;;;5091200;28;20196;-61
2022/10/07 09:10:23;;;;;;;6.50;5.80;;;15.30;83.40;;;;;;5107136;28;20188;-61
2022/10/07 09:13:14;;;;;;;8.77;6.10;;;15.40;83.50;;;;;;5109392;28;20184;-61
2022/10/07 09:15:48;;;;;;;8.57;6.03;;;15.50;82.90;;;;;;5095480;28;20197;-62
2022/10/07 09:18:20;;;;;;;11.27;6.27;;;15.70;81.90;;;;;;5093935;28;20192;-61
2022/10/07 09:20:53;;;;;;;6.87;6.10;;;16.00;81.60;;;;;;5113127;28;20189;-62
2022/10/07 09:23:22;;;;;;;8.17;6.10;;;15.90;81.90;;;;;;5109275;28;20190;-62
2022/10/07 09:25:50;;;;;;;7.90;5.37;;;16.00;81.30;;;;;;5100016;28;20185;-61
2022/10/07 09:28:20;;;;;;;7.00;5.30;;;16.20;81.00;;;;;;5097282;28;20204;-61
2022/10/07 09:30:46;;;;;;;12.27;5.63;;;16.20;81.30;;;;;;5098567;28;20264;-61
2022/10/07 09:33:19;;;;;;;6.63;5.87;;;16.20;81.30;;;;;;5092482;28;20248;-62
2022/10/07 09:35:56;;;;;;;6.97;5.17;;;16.20;80.90;;;;;;5098754;28;20223;-61
2022/10/07 09:38:34;;;;;;;5.73;5.03;;;16.20;81.10;;;;;;5088787;28;20184;-62
2022/10/07 09:41:29;;;;;;;6.03;5.17;;;16.30;81.30;;;;;;5107684;28;20186;-61
2022/10/07 09:44:05;;;;;;;8.03;5.30;;;16.30;81.70;;;;;;5095533;28;20181;-61
2022/10/07 09:46:48;;;;;;;9.13;5.40;;;16.30;81.20;;;;;;5099225;28;20191;-62
2022/10/07 09:49:28;;;;;;;7.23;4.87;;;16.30;80.60;;;;;;5093724;28;20678;-61
2022/10/07 09:52:04;;;;;;;7.60;5.73;;;16.40;81.30;;;;;;5112230;28;20229;-61
2022/10/07 09:54:32;;;;;;;7.90;5.53;;;16.80;79.50;;;;;;5108950;28;20184;-63
2022/10/07 09:57:00;;;;;;;8.10;5.57;;;16.80;80.20;;;;;;5106749;28;20173;-63
2022/10/07 09:59:36;;;;;;;9.50;5.80;;;16.80;80.10;;;;;;5105868;28;20184;-64
2022/10/07 10:02:14;;;;;;;5.73;5.17;;;17.00;77.90;;;;;;5108537;28;20187;-62
2022/10/07 10:04:54;;;;;;;7.70;5.10;;;17.10;78.80;;;;;;5111381;28;20271;-62
2022/10/07 10:07:31;;;;;;;8.00;5.00;;;17.20;77.80;;;;;;5102357;28;20249;-61
2022/10/07 10:10:03;;;;;;;7.47;4.63;;;17.30;78.40;;;;;;5104732;28;20268;-63
2022/10/07 10:12:33;;;;;;;10.13;4.93;;;17.30;78.10;;;;;;5110282;28;20179;-62
2022/10/07 10:15:00;;;;;;;8.63;5.80;;;17.40;77.10;;;;;;5115390;28;20188;-62
2022/10/07 10:17:33;;;;;;;7.00;4.97;;;17.60;76.20;;;;;;5074540;28;20193;-64
2022/10/07 10:20:24;;;;;;;10.37;4.97;;;17.70;73.50;;;;;;5111114;28;20177;-64
2022/10/07 10:22:50;;;;;;;5.23;4.60;;;17.80;75.50;;;;;;5107247;28;20230;-64
2022/10/07 10:28:32;;;;;;;5.03;4.17;;;17.90;72.90;;;;;;5107570;28;20260;-65
2022/10/07 10:31:15;;;;;;;6.97;4.40;;;17.90;72.10;;;;;;5119638;27;20212;-65
2022/10/07 10:34:05;;;;;;;8.90;4.83;;;18.00;72.90;;;;;;5114206;28;20184;-63
2022/10/07 10:36:37;;;;;;;5.67;4.60;;;18.00;73.80;;;;;;5114267;28;20246;-62
2022/10/07 10:39:32;;;;;;;8.57;4.93;;;18.00;72.80;;;;;;5109474;28;20189;-62
2022/10/07 10:42:04;;;;;;;5.63;4.20;;;18.10;72.90;;;;;;5114225;28;20264;-62
2022/10/07 10:44:31;;;;;;;9.60;6.50;;;18.30;73.70;;;;;;5096352;28;20177;-62
2022/10/07 10:47:14;;;;;;;6.57;5.23;;;18.30;71.60;;;;;;5107484;28;20177;-63
2022/10/07 10:49:57;;;;;;;6.03;4.93;;;18.20;72.50;;;;;;5094816;28;20259;-62
2022/10/07 10:53:03;;;;;;;10.90;4.57;;;18.30;71.90;;;;;;5099372;28;20234;-62
2022/10/07 10:55:46;;;;;;;6.60;4.30;;;18.30;71.80;;;;;;5097587;28;20279;-62
2022/10/07 10:58:52;;;;;;;4.73;4.10;;;18.60;70.20;;;;;;5101843;28;20186;-61
2022/10/07 11:01:20;;;;;;;4.07;3.67;;;18.50;69.30;;;;;;5118321;27;20181;-63
2022/10/07 11:04:13;;;;;;;5.70;3.73;;;18.60;71.10;;;;;;5110651;28;20210;-62
2022/10/07 11:06:43;;;;;;;4.13;3.77;;;18.60;72.00;;;;;;5100559;28;20189;-61
2022/10/07 11:09:16;;;;;;;5.53;3.80;;;18.60;70.20;;;;;;5113700;28;20594;-61
2022/10/07 11:11:43;;;;;;;3.77;3.30;;;18.90;69.30;;;;;;5100344;28;20188;-61
2022/10/07 11:14:15;;;;;;;5.73;3.03;;;18.90;71.00;;;;;;5110482;28;20261;-61
2022/10/07 11:16:56;;;;;;;3.87;3.53;;;18.90;71.40;;;;;;5108290;28;20196;-61
2022/10/07 11:19:37;;;;;;;4.47;3.57;;;18.90;70.10;;;;;;5108458;28;20266;-61
2022/10/07 11:22:10;;;;;;;3.80;3.30;;;19.10;71.00;;;;;;5114411;28;20171;-61
2022/10/07 11:24:50;;;;;;;4.43;3.20;;;19.10;71.80;;;;;;5114726;28;20180;-61
2022/10/07 11:27:32;;;;;;;7.83;3.60;;;19.10;72.40;;;;;;5101564;28;20212;-61
2022/10/07 11:30:06;;;;;;;5.73;4.10;;;19.30;71.00;;;;;;5107398;28;20196;-61
2022/10/07 11:32:41;;;;;;;6.57;3.87;;;19.50;67.90;;;;;;5106896;28;20271;-61
2022/10/07 11:35:16;;;;;;;8.37;4.17;;;19.60;67.70;;;;;;5114210;28;20185;-60
2022/10/07 11:37:46;;;;;;;3.77;3.40;;;19.70;68.30;;;;;;5099647;28;20283;-61
2022/10/07 11:40:11;;;;;;;3.43;3.13;;;19.70;67.80;;;;;;5113091;28;20188;-60
2022/10/07 11:42:41;;;;;;;3.67;3.20;;;19.80;68.40;;;;;;5113260;28;20192;-62
2022/10/07 11:45:12;;;;;;;4.97;3.53;;;19.90;69.30;;;;;;5115111;28;20187;-62
2022/10/07 11:47:44;;;;;;;7.63;3.60;;;20.00;70.20;;;;;;5110814;28;20306;-61
2022/10/07 11:50:34;;;;;;;4.57;3.20;;;20.00;68.50;;;;;;5108865;28;20221;-61
2022/10/07 11:53:05;;;;;;;3.40;3.10;;;20.10;68.90;;;;;;5105663;28;20234;-61
2022/10/07 11:55:43;;;;;;;3.83;3.53;;;20.20;67.70;;;;;;5109747;28;20202;-62
2022/10/07 11:58:37;;;;;;;4.43;3.20;;;20.30;64.70;;;;;;5104812;28;20208;-61
2022/10/07 12:01:25;;;;;;;5.27;3.27;;;20.30;66.40;;;;;;5108776;27;20189;-62
2022/10/07 12:03:52;;;;;;;3.73;3.00;;;20.60;64.70;;;;;;5099351;28;20184;-61
2022/10/07 12:06:18;;;;;;;4.20;2.87;;;20.50;64.70;;;;;;5106730;28;20181;-62
2022/10/07 12:08:45;;;;;;;4.53;3.07;;;20.60;66.80;;;;;;5072606;28;20209;-62
2022/10/07 12:11:11;;;;;;;4.43;3.40;;;20.70;66.60;;;;;;5096225;28;20185;-62
2022/10/07 12:13:49;;;;;;;4.10;3.03;;;20.80;67.10;;;;;;5112216;28;20184;-62
2022/10/07 12:16:28;;;;;;;4.17;3.77;;;20.80;64.10;;;;;;5108549;28;20193;-61
2022/10/07 12:19:06;;;;;;;5.17;2.93;;;20.90;66.00;;;;;;5128327;27;20364;-62
2022/10/07 12:22:01;;;;;;;2.83;2.60;;;21.10;64.90;;;;;;5112568;28;20183;-62
2022/10/07 12:24:29;;;;;;;5.53;3.07;;;21.20;65.90;;;;;;5110446;28;20189;-62
2022/10/07 12:26:57;;;;;;;5.27;2.90;;;21.30;64.50;;;;;;5113750;28;20238;-61
2022/10/07 12:29:27;;;;;;;4.77;3.10;;;21.30;63.30;;;;;;5096131;28;20291;-63
2022/10/07 12:31:53;;;;;;;3.07;2.87;;;21.40;64.20;;;;;;5099453;28;20332;-62
2022/10/07 12:34:39;;;;;;;5.50;2.80;;;21.50;63.70;;;;;;5109444;28;20274;-63
2022/10/07 12:37:38;;;;;;;2.90;2.53;;;21.70;63.00;;;;;;5110494;28;20231;-62
2022/10/07 12:40:14;;;;;;;5.83;2.83;;;21.80;61.10;;;;;;5123440;27;20199;-62
2022/10/07 12:42:48;;;;;;;2.63;2.43;;;22.10;60.50;;;;;;5109795;28;20244;-62
2022/10/07 12:45:15;;;;;;;5.30;2.87;;;22.30;58.10;;;;;;5102398;28;20191;-62
2022/10/07 12:47:42;;;;;;;6.37;2.90;;;22.50;56.70;;;;;;5111915;28;20184;-62
2022/10/07 12:50:12;;;;;;;5.27;3.03;;;22.60;56.70;;;;;;5097358;28;20230;-62
2022/10/07 12:52:46;;;;;;;9.87;3.00;;;22.70;55.70;;;;;;5100468;28;20181;-64
2022/10/07 12:55:35;;;;;;;2.83;2.30;;;22.50;55.10;;;;;;5112541;28;20189;-63
2022/10/07 13:01:32;;;;;;;2.97;2.57;;;23.20;55.90;;;;;;5107545;28;20187;-62
2022/10/07 13:04:10;;;;;;;7.87;2.97;;;23.70;57.20;;;;;;5098226;28;20181;-61
2022/10/07 13:06:56;;;;;;;3.57;2.60;;;24.00;54.10;;;;;;5106222;28;20531;-61
2022/10/07 13:09:44;;;;;;;4.13;2.50;;;23.80;53.00;;;;;;5100945;28;20207;-61
2022/10/07 13:12:33;;;;;;;2.50;2.30;;;24.00;53.90;;;;;;5111639;28;20180;-62
2022/10/07 13:15:42;;;;;;;2.67;2.30;;;24.50;50.30;;;;;;5111941;28;20180;-62
2022/10/07 13:18:47;;;;;;;2.60;2.37;;;25.30;51.30;;;;;;5049893;28;20190;-62